PANC/ANC METAR and TAF weather

Enter ICAO airport designator
Station Type Date Time Source
PANC METAR 2020/07/11 22:53 UTC NOAA

PANC 112253Z 35005KT 10SM FEW014 SCT050 BKN080 BKN140 18/13 A2974 RMK AO2 SLP070 SH DSNT NE T01780128


Station Type Date Time Source
PANC Decoded METAR 2020/07/11 22:53 UTC NOAA

TED STEVENS ANCHORAGE INTERNATIONAL , AK, United States (PANC) 61-10N 150-02W 48M
Jul 11, 2020 - 06:53 PM EDT / 2020.07.11 2253 UTC
Wind: from the N (350 degrees) at 6 MPH (5 KT):0
Visibility: 10 mile(s):0
Sky conditions: mostly cloudy
Temperature: 64.0 F (17.8 C)
Dew Point: 55.0 F (12.8 C)
Relative Humidity: 72%
Pressure (altimeter): 29.74 in. Hg (1007 hPa)
ob: PANC 112253Z 35005KT 10SM FEW014 SCT050 BKN080 BKN140 18/13 A2974 RMK AO2 SLP070 SH DSNT NE T01780128
cycle: 23

Station Type Date Time Source
PANC TAF 2020/07/11 21:58 UTC NOAA

TAF
AMD PANC 112057Z 1121/1224 VRB05KT P6SM SCT035 BKN080
TEMPO 1121/1124 -SHRA BKN035
FM120000 16006KT P6SM VCSH SCT040 BKN070
FM120400 16012G20KT P6SM VCSH SCT035 OVC050

Example: see airport list